Terminal Aerodrome Forecast
Issued by NWS

Home | Current Version | Previous Version | Text Only | Print | Product List | Glossary On
Versions: 1 2 3 4 5 6 7 8 9 10 11 12 13 14 15 16 17 18 19 20 21 22
862
FTUS45 KABQ 010520
TAFLVS
TAF
KLVS 010520Z 0106/0206 28011KT P6SM FEW250
     FM011900 26014G24KT P6SM FEW080
     FM020200 25007KT P6SM FEW100=

USA.gov is the U.S. government's official web portal to all federal, state and local government web resources and services.